createdAt,value
2023-03-16T00:00:26.042Z,100.00
2023-03-16T00:01:28.484Z,100.00
2023-03-16T00:02:30.790Z,100.00
2023-03-16T00:03:33.993Z,100.00
2023-03-16T00:04:37.625Z,100.00
2023-03-16T00:05:40.017Z,100.00
2023-03-16T00:06:42.245Z,100.00
2023-03-16T00:07:44.687Z,100.00
2023-03-16T00:08:46.858Z,100.00
2023-03-16T00:09:49.309Z,100.00
2023-03-16T00:10:53.962Z,100.00
2023-03-16T00:11:58.877Z,100.00
2023-03-16T00:13:02.623Z,100.00
2023-03-16T00:14:04.817Z,100.00
2023-03-16T00:15:07.582Z,100.00
2023-03-16T00:16:10.137Z,100.00
2023-03-16T00:17:18.811Z,100.00
2023-03-16T00:18:22.518Z,100.00
2023-03-16T00:19:25.007Z,100.00
2023-03-16T00:20:28.335Z,100.00
2023-03-16T00:21:32.022Z,100.00
2023-03-16T00:22:34.547Z,100.00
2023-03-16T00:23:36.814Z,100.00
2023-03-16T00:24:38.978Z,100.00
2023-03-16T00:25:41.898Z,100.00
2023-03-16T00:26:54.651Z,100.00
2023-03-16T00:27:57.181Z,100.00
2023-03-16T00:29:01.729Z,100.00
2023-03-16T00:30:04.740Z,100.00
2023-03-16T00:31:11.865Z,100.00
2023-03-16T00:32:16.976Z,100.00
2023-03-16T00:33:19.562Z,100.00
2023-03-16T00:34:23.267Z,100.00
2023-03-16T00:35:25.735Z,100.00
2023-03-16T00:36:28.329Z,100.00
2023-03-16T00:37:32.723Z,100.00
2023-03-16T00:38:40.408Z,100.00
2023-03-16T00:39:44.601Z,100.00
2023-03-16T00:40:51.287Z,100.00
2023-03-16T00:41:58.269Z,100.00
2023-03-16T00:43:00.747Z,100.00
2023-03-16T00:44:04.732Z,100.00
2023-03-16T00:45:07.832Z,100.00
2023-03-16T00:46:14.930Z,100.00
2023-03-16T00:47:18.675Z,100.00
2023-03-16T00:48:24.361Z,100.00
2023-03-16T00:49:26.590Z,100.00
2023-03-16T00:50:29.424Z,100.00
2023-03-16T00:51:33.878Z,100.00
2023-03-16T00:52:36.103Z,100.00
2023-03-16T00:53:39.917Z,100.00
2023-03-16T00:54:44.863Z,100.00
2023-03-16T00:55:47.119Z,100.00
2023-03-16T00:56:49.288Z,100.00
2023-03-16T00:57:51.499Z,100.00
2023-03-16T00:58:57.650Z,100.00
2023-03-16T01:00:01.629Z,100.00
2023-03-16T01:01:09.860Z,100.00
2023-03-16T01:02:12.786Z,100.00
2023-03-16T01:03:15.192Z,100.00
2023-03-16T01:04:19.055Z,100.00
2023-03-16T01:05:21.264Z,100.00
2023-03-16T01:06:23.504Z,100.00
2023-03-16T01:07:25.746Z,100.00
2023-03-16T01:08:28.068Z,100.00
2023-03-16T01:09:30.232Z,100.00
2023-03-16T01:10:34.484Z,100.00
2023-03-16T01:11:37.218Z,100.00
2023-03-16T01:12:41.298Z,100.00
2023-03-16T01:13:43.726Z,100.00
2023-03-16T01:14:47.618Z,100.00
2023-03-16T01:15:52.680Z,100.00
2023-03-16T01:16:54.965Z,100.00
2023-03-16T01:17:58.370Z,100.00
2023-03-16T01:19:01.275Z,100.00
2023-03-16T01:20:08.030Z,100.00
2023-03-16T01:21:13.695Z,100.00
2023-03-16T01:22:16.185Z,100.00
2023-03-16T01:23:18.907Z,100.00
2023-03-16T01:24:21.235Z,100.00
2023-03-16T01:25:24.168Z,100.00
2023-03-16T01:26:26.655Z,100.00
2023-03-16T01:27:28.943Z,100.00
2023-03-16T01:28:32.678Z,100.00
2023-03-16T01:29:35.205Z,100.00
2023-03-16T01:30:37.446Z,100.00
2023-03-16T01:31:39.811Z,100.00
2023-03-16T01:32:43.292Z,100.00
2023-03-16T01:33:48.406Z,100.00
2023-03-16T01:34:55.611Z,100.00
2023-03-16T01:36:04.753Z,100.00
2023-03-16T01:37:15.312Z,100.00
2023-03-16T01:38:26.427Z,100.00
2023-03-16T01:39:28.720Z,100.00
2023-03-16T01:40:31.515Z,100.00
2023-03-16T01:41:33.754Z,100.00
2023-03-16T01:42:49.020Z,100.00
2023-03-16T01:43:53.738Z,100.00
2023-03-16T01:45:01.560Z,100.00
2023-03-16T01:46:08.276Z,100.00
2023-03-16T01:47:16.261Z,100.00
2023-03-16T01:48:22.668Z,100.00
2023-03-16T01:49:32.896Z,100.00
2023-03-16T01:50:35.850Z,100.00
2023-03-16T01:51:59.920Z,100.00
2023-03-16T01:53:04.050Z,100.00
2023-03-16T01:54:42.890Z,100.00
2023-03-16T01:55:46.532Z,100.00
2023-03-16T01:56:55.185Z,100.00
2023-03-16T01:57:57.705Z,100.00
2023-03-16T01:59:02.192Z,100.00
2023-03-16T02:00:12.096Z,100.00
2023-03-16T02:01:17.656Z,100.00
2023-03-16T02:02:23.163Z,100.00
2023-03-16T02:03:27.667Z,100.00
2023-03-16T02:04:45.316Z,100.00
2023-03-16T02:06:38.116Z,100.00
2023-03-16T02:07:45.228Z,100.00
2023-03-16T02:11:50.010Z,100.00
2023-03-16T02:12:53.263Z,100.00
2023-03-16T02:14:02.497Z,100.00
2023-03-16T02:15:05.143Z,100.00
2023-03-16T02:16:13.425Z,100.00
2023-03-16T02:17:20.080Z,100.00
2023-03-16T02:18:23.033Z,100.00
2023-03-16T02:20:05.912Z,100.00
2023-03-16T02:21:33.861Z,100.00
2023-03-16T02:22:42.202Z,100.00
2023-03-16T02:23:45.812Z,100.00
2023-03-16T02:24:49.695Z,100.00
2023-03-16T02:26:12.081Z,100.00
2023-03-16T02:27:22.933Z,100.00
2023-03-16T02:28:50.993Z,100.00
2023-03-16T02:30:16.183Z,100.00
2023-03-16T02:31:31.739Z,100.00
2023-03-16T02:32:36.367Z,100.00
2023-03-16T02:33:40.012Z,100.00
2023-03-16T02:34:44.067Z,100.00
2023-03-16T02:35:48.336Z,100.00
2023-03-16T02:36:52.975Z,100.00
2023-03-16T02:37:59.592Z,100.00
2023-03-16T02:39:06.012Z,100.00
2023-03-16T02:40:22.325Z,100.00
2023-03-16T02:41:26.364Z,100.00
2023-03-16T02:42:32.944Z,100.00
2023-03-16T02:43:37.875Z,100.00
2023-03-16T02:44:57.943Z,100.00
2023-03-16T02:46:08.490Z,100.00
2023-03-16T02:47:19.356Z,100.00
2023-03-16T02:48:27.289Z,100.00
2023-03-16T02:49:42.251Z,100.00
2023-03-16T02:50:49.636Z,100.00
2023-03-16T02:51:52.405Z,100.00
2023-03-16T02:52:54.883Z,100.00
2023-03-16T02:53:57.127Z,100.00
2023-03-16T02:55:00.392Z,100.00
2023-03-16T02:56:03.397Z,100.00
2023-03-16T02:57:09.298Z,100.00
2023-03-16T02:58:12.910Z,100.00
2023-03-16T02:59:15.171Z,100.00
2023-03-16T03:02:11.826Z,100.00
2023-03-16T03:03:14.382Z,100.00
2023-03-16T03:04:17.254Z,100.00
2023-03-16T03:05:20.303Z,100.00
2023-03-16T03:06:24.766Z,100.00
2023-03-16T03:07:31.692Z,100.00
2023-03-16T03:08:38.545Z,100.00
2023-03-16T03:09:44.615Z,100.00
2023-03-16T03:10:47.090Z,100.00
2023-03-16T03:11:50.507Z,100.00
2023-03-16T03:12:53.017Z,100.00
2023-03-16T03:13:56.439Z,100.00
2023-03-16T03:15:01.677Z,100.00
2023-03-16T03:16:12.777Z,100.00
2023-03-16T03:17:15.187Z,100.00
2023-03-16T03:18:18.426Z,100.00
2023-03-16T03:19:20.817Z,100.00
2023-03-16T03:20:23.082Z,100.00
2023-03-16T03:21:25.648Z,100.00
2023-03-16T03:22:28.314Z,100.00
2023-03-16T03:23:30.518Z,100.00
2023-03-16T03:24:34.069Z,100.00
2023-03-16T03:25:36.767Z,100.00
2023-03-16T03:26:39.315Z,100.00
2023-03-16T03:27:46.980Z,100.00
2023-03-16T03:28:52.618Z,100.00
2023-03-16T03:29:54.950Z,100.00
2023-03-16T03:30:57.322Z,100.00
2023-03-16T03:32:00.309Z,100.00
2023-03-16T03:33:03.044Z,100.00
2023-03-16T03:34:06.714Z,100.00
2023-03-16T03:35:13.162Z,100.00
2023-03-16T03:36:15.702Z,100.00
2023-03-16T03:37:20.049Z,100.00
2023-03-16T03:38:22.416Z,100.00
2023-03-16T03:39:25.100Z,100.00
2023-03-16T03:40:28.214Z,100.00
2023-03-16T03:41:34.238Z,100.00
2023-03-16T03:42:39.164Z,100.00
2023-03-16T03:43:41.806Z,100.00
2023-03-16T03:44:52.858Z,100.00
2023-03-16T03:45:59.961Z,100.00
2023-03-16T03:47:02.327Z,100.00
2023-03-16T03:48:04.965Z,100.00
2023-03-16T03:49:10.234Z,100.00
2023-03-16T03:50:13.899Z,100.00
2023-03-16T03:51:41.121Z,100.00
2023-03-16T03:52:48.467Z,100.00
2023-03-16T03:53:51.297Z,100.00
2023-03-16T03:54:59.512Z,100.00
2023-03-16T03:56:01.834Z,100.00
2023-03-16T03:57:05.107Z,100.00
2023-03-16T03:58:07.568Z,100.00
2023-03-16T03:59:10.958Z,100.00
2023-03-16T04:00:31.795Z,100.00
2023-03-16T04:01:34.241Z,100.00
2023-03-16T04:02:36.919Z,100.00
2023-03-16T04:03:41.962Z,100.00
2023-03-16T04:04:45.145Z,100.00
2023-03-16T04:05:48.680Z,100.00
2023-03-16T04:06:51.553Z,100.00
2023-03-16T04:07:57.317Z,100.00
2023-03-16T04:08:59.667Z,100.00
2023-03-16T04:10:06.920Z,100.00
2023-03-16T04:11:14.450Z,100.00
2023-03-16T04:12:16.682Z,100.00
2023-03-16T04:13:19.498Z,100.00
2023-03-16T04:14:21.958Z,100.00
2023-03-16T04:15:24.898Z,100.00
2023-03-16T04:16:44.132Z,100.00
2023-03-16T04:17:49.260Z,100.00
2023-03-16T04:18:51.542Z,100.00
2023-03-16T04:19:53.829Z,100.00
2023-03-16T04:20:56.354Z,100.00
2023-03-16T04:22:00.316Z,100.00
2023-03-16T04:23:02.905Z,100.00
2023-03-16T04:24:06.386Z,100.00
2023-03-16T04:25:15.630Z,100.00
2023-03-16T04:26:19.451Z,100.00
2023-03-16T04:27:23.346Z,100.00
2023-03-16T04:28:26.685Z,100.00
2023-03-16T04:29:29.301Z,100.00
2023-03-16T04:30:33.395Z,100.00
2023-03-16T04:31:47.680Z,100.00
2023-03-16T04:32:52.412Z,100.00
2023-03-16T04:33:57.087Z,100.00
2023-03-16T04:34:59.746Z,100.00
2023-03-16T04:36:13.711Z,100.00
2023-03-16T04:37:16.565Z,100.00
2023-03-16T04:38:19.479Z,100.00
2023-03-16T04:39:29.197Z,100.00
2023-03-16T04:40:31.404Z,100.00
2023-03-16T04:41:46.708Z,100.00
2023-03-16T04:42:55.493Z,100.00
2023-03-16T04:43:58.954Z,100.00
2023-03-16T04:45:01.485Z,100.00
2023-03-16T04:46:05.940Z,100.00
2023-03-16T04:47:10.175Z,100.00
2023-03-16T04:48:14.951Z,100.00
2023-03-16T04:49:17.232Z,100.00
2023-03-16T04:50:20.930Z,100.00
2023-03-16T04:51:28.706Z,100.00
2023-03-16T04:52:40.300Z,100.00
2023-03-16T04:53:44.615Z,100.00
2023-03-16T04:54:54.967Z,100.00
2023-03-16T04:56:00.494Z,100.00
2023-03-16T04:57:03.783Z,100.00
2023-03-16T04:58:19.989Z,100.00
2023-03-16T04:59:25.476Z,100.00
2023-03-16T05:00:35.842Z,100.00
2023-03-16T05:01:55.558Z,100.00
2023-03-16T05:02:58.243Z,100.00
2023-03-16T05:04:00.548Z,100.00
2023-03-16T05:05:05.416Z,100.00
2023-03-16T05:06:08.585Z,100.00
2023-03-16T05:07:11.935Z,100.00
2023-03-16T05:08:17.676Z,100.00
2023-03-16T05:09:23.402Z,100.00
2023-03-16T05:10:25.875Z,100.00
2023-03-16T05:11:28.311Z,100.00
2023-03-16T05:12:34.253Z,100.00
2023-03-16T05:13:39.841Z,100.00
2023-03-16T05:14:42.118Z,100.00
2023-03-16T05:16:02.375Z,100.00
2023-03-16T05:17:09.250Z,100.00
2023-03-16T05:18:12.113Z,100.00
2023-03-16T05:19:14.408Z,100.00
2023-03-16T05:20:17.040Z,100.00
2023-03-16T05:21:27.453Z,100.00
2023-03-16T05:22:35.774Z,100.00
2023-03-16T05:23:52.115Z,100.00
2023-03-16T05:24:54.422Z,100.00
2023-03-16T05:25:59.758Z,100.00
2023-03-16T05:27:03.150Z,100.00
2023-03-16T05:28:05.684Z,100.00
2023-03-16T05:29:19.421Z,100.00
2023-03-16T05:30:21.833Z,100.00
2023-03-16T05:31:26.646Z,100.00
2023-03-16T05:32:33.017Z,100.00
2023-03-16T05:33:35.589Z,100.00
2023-03-16T05:34:43.200Z,100.00
2023-03-16T05:35:46.004Z,100.00
2023-03-16T05:36:49.345Z,100.00
2023-03-16T05:37:53.202Z,100.00
2023-03-16T05:38:56.665Z,100.00
2023-03-16T05:40:16.845Z,100.00
2023-03-16T05:41:22.880Z,100.00
2023-03-16T05:42:34.694Z,100.00
2023-03-16T05:43:37.918Z,100.00
2023-03-16T05:44:40.440Z,100.00
2023-03-16T05:45:49.242Z,100.00
2023-03-16T05:46:54.130Z,100.00
2023-03-16T05:47:56.582Z,100.00
2023-03-16T05:48:59.591Z,100.00
2023-03-16T05:50:01.875Z,100.00
2023-03-16T05:51:13.862Z,100.00
2023-03-16T05:52:17.098Z,100.00
2023-03-16T05:53:19.961Z,100.00
2023-03-16T05:54:23.203Z,100.00
2023-03-16T05:55:25.425Z,100.00
2023-03-16T05:56:33.441Z,100.00
2023-03-16T05:57:36.177Z,100.00
2023-03-16T05:58:38.513Z,100.00
2023-03-16T05:59:43.931Z,100.00
2023-03-16T06:00:47.761Z,100.00
2023-03-16T06:02:10.704Z,100.00
2023-03-16T06:03:13.088Z,100.00
2023-03-16T06:04:15.928Z,100.00
2023-03-16T06:05:19.990Z,100.00
2023-03-16T06:06:23.727Z,100.00
2023-03-16T06:07:32.991Z,100.00
2023-03-16T06:08:35.313Z,100.00
2023-03-16T06:09:44.663Z,100.00
2023-03-16T06:10:50.442Z,100.00
2023-03-16T06:11:54.070Z,100.00
2023-03-16T06:12:57.399Z,100.00
2023-03-16T06:14:01.050Z,100.00
2023-03-16T06:15:07.897Z,100.00
2023-03-16T06:16:14.565Z,100.00
2023-03-16T06:17:16.890Z,100.00
2023-03-16T06:18:19.142Z,100.00
2023-03-16T06:19:21.813Z,100.00
2023-03-16T06:20:29.369Z,100.00
2023-03-16T06:21:32.592Z,100.00
2023-03-16T06:22:42.275Z,100.00
2023-03-16T06:23:47.306Z,100.00
2023-03-16T06:24:50.865Z,100.00
2023-03-16T06:25:55.860Z,100.00
2023-03-16T06:27:00.802Z,100.00
2023-03-16T06:28:09.465Z,100.00
2023-03-16T06:29:11.815Z,100.00
2023-03-16T06:30:15.965Z,100.00
2023-03-16T06:31:19.264Z,100.00
2023-03-16T06:32:22.329Z,100.00
2023-03-16T06:33:25.472Z,100.00
2023-03-16T06:34:28.271Z,100.00
2023-03-16T06:35:31.803Z,100.00
2023-03-16T06:36:46.021Z,100.00
2023-03-16T06:37:48.961Z,100.00
2023-03-16T06:39:10.185Z,100.00
2023-03-16T06:40:17.888Z,100.00
2023-03-16T06:41:20.123Z,100.00
2023-03-16T06:42:23.904Z,100.00
2023-03-16T06:43:26.211Z,100.00
2023-03-16T06:44:28.527Z,100.00
2023-03-16T06:45:44.003Z,100.00
2023-03-16T06:46:46.718Z,100.00
2023-03-16T06:47:49.276Z,100.00
2023-03-16T06:48:51.771Z,100.00
2023-03-16T06:49:55.290Z,100.00
2023-03-16T06:51:01.361Z,100.00
2023-03-16T06:52:05.202Z,100.00
2023-03-16T06:53:07.526Z,100.00
2023-03-16T06:54:11.909Z,100.00
2023-03-16T06:55:15.677Z,100.00
2023-03-16T06:56:21.615Z,100.00
2023-03-16T06:57:25.162Z,100.00
2023-03-16T06:58:27.381Z,100.00
2023-03-16T06:59:29.882Z,100.00
2023-03-16T07:00:34.000Z,100.00
2023-03-16T07:01:36.487Z,100.00
2023-03-16T07:02:40.505Z,100.00
2023-03-16T07:03:43.785Z,100.00
2023-03-16T07:04:54.573Z,100.00
2023-03-16T07:05:57.119Z,100.00
2023-03-16T07:06:59.596Z,100.00
2023-03-16T07:08:04.262Z,100.00
2023-03-16T07:09:06.852Z,100.00
2023-03-16T07:10:15.925Z,100.00
2023-03-16T07:11:18.209Z,100.00
2023-03-16T07:12:20.439Z,100.00
2023-03-16T07:13:22.743Z,100.00
2023-03-16T07:14:26.265Z,100.00
2023-03-16T07:15:30.242Z,100.00
2023-03-16T07:16:33.508Z,100.00
2023-03-16T07:17:39.625Z,100.00
2023-03-16T07:18:44.386Z,100.00
2023-03-16T07:19:48.193Z,100.00
2023-03-16T07:20:50.650Z,100.00
2023-03-16T07:21:52.996Z,100.00
2023-03-16T07:22:57.601Z,100.00
2023-03-16T07:24:00.179Z,100.00
2023-03-16T07:25:07.312Z,100.00
2023-03-16T07:26:11.951Z,100.00
2023-03-16T07:27:25.005Z,100.00
2023-03-16T07:28:28.196Z,100.00
2023-03-16T07:29:34.072Z,100.00
2023-03-16T07:30:38.656Z,100.00
2023-03-16T07:31:41.039Z,100.00
2023-03-16T07:32:49.916Z,100.00
2023-03-16T07:33:57.473Z,100.00
2023-03-16T07:35:11.633Z,100.00
2023-03-16T07:36:14.332Z,100.00
2023-03-16T07:37:25.396Z,100.00
2023-03-16T07:38:32.369Z,100.00
2023-03-16T07:39:38.165Z,100.00
2023-03-16T07:40:54.273Z,100.00
2023-03-16T07:41:58.298Z,100.00
2023-03-16T07:43:26.897Z,100.00
2023-03-16T07:44:31.918Z,100.00
2023-03-16T07:45:34.616Z,100.00
2023-03-16T07:46:38.110Z,100.00
2023-03-16T07:47:40.596Z,100.00
2023-03-16T07:48:52.848Z,100.00
2023-03-16T07:49:54.988Z,100.00
2023-03-16T07:50:57.265Z,100.00
2023-03-16T07:52:00.274Z,100.00
2023-03-16T07:53:10.763Z,100.00
2023-03-16T07:54:15.487Z,100.00
2023-03-16T07:55:17.777Z,100.00
2023-03-16T07:56:21.652Z,100.00
2023-03-16T07:57:27.665Z,100.00
2023-03-16T07:58:30.362Z,100.00
2023-03-16T07:59:32.583Z,100.00
2023-03-16T08:00:36.320Z,100.00
2023-03-16T08:01:38.766Z,100.00
2023-03-16T08:02:41.943Z,100.00
2023-03-16T08:03:46.727Z,100.00
2023-03-16T08:04:49.101Z,100.00
2023-03-16T08:05:51.632Z,100.00
2023-03-16T08:07:00.112Z,100.00
2023-03-16T08:08:09.606Z,100.00
2023-03-16T08:09:13.353Z,100.00
2023-03-16T08:10:17.460Z,100.00
2023-03-16T08:11:26.778Z,100.00
2023-03-16T08:12:33.708Z,100.00
2023-03-16T08:13:36.570Z,100.00
2023-03-16T08:14:38.843Z,100.00
2023-03-16T08:15:58.867Z,100.00
2023-03-16T08:17:08.470Z,100.00
2023-03-16T08:18:12.471Z,100.00
2023-03-16T08:19:15.144Z,100.00
2023-03-16T08:20:19.036Z,100.00
2023-03-16T08:21:22.920Z,100.00
2023-03-16T08:22:25.640Z,100.00
2023-03-16T08:23:29.417Z,100.00
2023-03-16T08:24:32.595Z,100.00
2023-03-16T08:25:35.419Z,100.00
2023-03-16T08:26:45.407Z,100.00
2023-03-16T08:27:48.571Z,100.00
2023-03-16T08:28:52.465Z,100.00
2023-03-16T08:29:55.568Z,100.00
2023-03-16T08:31:00.905Z,100.00
2023-03-16T08:32:25.822Z,100.00
2023-03-16T08:33:28.086Z,100.00
2023-03-16T08:34:31.809Z,100.00
2023-03-16T08:35:34.230Z,100.00
2023-03-16T08:36:37.614Z,100.00
2023-03-16T08:37:41.436Z,100.00
2023-03-16T08:38:50.894Z,100.00
2023-03-16T08:40:04.360Z,100.00
2023-03-16T08:41:07.025Z,100.00
2023-03-16T08:42:10.707Z,100.00
2023-03-16T08:43:20.090Z,100.00
2023-03-16T08:44:24.379Z,100.00
2023-03-16T08:45:26.986Z,100.00
2023-03-16T08:46:30.775Z,100.00
2023-03-16T08:47:35.227Z,100.00
2023-03-16T08:48:37.469Z,100.00
2023-03-16T08:49:39.795Z,100.00
2023-03-16T08:50:46.947Z,100.00
2023-03-16T08:51:49.626Z,100.00
2023-03-16T08:52:51.843Z,100.00
2023-03-16T08:53:54.524Z,100.00
2023-03-16T08:55:03.325Z,100.00
2023-03-16T08:56:09.447Z,100.00
2023-03-16T08:57:12.251Z,100.00
2023-03-16T08:58:15.398Z,100.00
2023-03-16T08:59:29.069Z,100.00
2023-03-16T09:00:31.914Z,100.00
2023-03-16T09:01:34.661Z,100.00
2023-03-16T09:02:38.499Z,100.00
2023-03-16T09:03:42.196Z,100.00
2023-03-16T09:04:45.906Z,100.00
2023-03-16T09:05:49.357Z,100.00
2023-03-16T09:07:05.936Z,100.00
2023-03-16T09:08:10.485Z,100.00
2023-03-16T09:09:12.741Z,100.00
2023-03-16T09:10:16.222Z,100.00
2023-03-16T09:11:19.724Z,100.00
2023-03-16T09:12:22.373Z,100.00
2023-03-16T09:13:24.656Z,100.00
2023-03-16T09:14:27.155Z,100.00
2023-03-16T09:15:29.694Z,100.00
2023-03-16T09:16:32.056Z,100.00
2023-03-16T09:17:34.667Z,100.00
2023-03-16T09:18:36.953Z,100.00
2023-03-16T09:19:57.714Z,100.00
2023-03-16T09:21:04.720Z,100.00
2023-03-16T09:22:06.968Z,100.00
2023-03-16T09:23:09.257Z,100.00
2023-03-16T09:24:11.720Z,100.00
2023-03-16T09:25:14.481Z,100.00
2023-03-16T09:26:16.803Z,100.00
2023-03-16T09:27:20.462Z,100.00
2023-03-16T09:28:22.994Z,100.00
2023-03-16T09:29:25.339Z,100.00
2023-03-16T09:30:28.281Z,100.00
2023-03-16T09:31:30.723Z,100.00
2023-03-16T09:32:34.004Z,100.00
2023-03-16T09:33:36.266Z,100.00
2023-03-16T09:34:39.213Z,100.00
2023-03-16T09:35:42.674Z,100.00
2023-03-16T09:36:45.061Z,100.00
2023-03-16T09:38:04.842Z,100.00
2023-03-16T09:39:08.861Z,100.00
2023-03-16T09:40:30.822Z,100.00
2023-03-16T09:41:51.389Z,100.00
2023-03-16T09:43:19.084Z,100.00
2023-03-16T09:44:37.370Z,100.00
2023-03-16T09:45:53.062Z,100.00
2023-03-16T09:46:58.674Z,100.00
2023-03-16T09:48:04.584Z,100.00
2023-03-16T09:49:10.217Z,100.00
2023-03-16T09:50:32.390Z,100.00
2023-03-16T09:52:18.433Z,100.00
2023-03-16T09:53:33.122Z,100.00
2023-03-16T09:54:59.784Z,100.00
2023-03-16T09:56:11.282Z,100.00
2023-03-16T09:57:36.078Z,100.00
2023-03-16T09:58:38.464Z,100.00
2023-03-16T09:59:40.731Z,100.00
2023-03-16T10:01:20.247Z,100.00
2023-03-16T10:02:47.075Z,100.00
2023-03-16T10:04:02.070Z,100.00
2023-03-16T10:05:23.765Z,100.00
2023-03-16T10:06:26.939Z,100.00
2023-03-16T10:07:41.232Z,100.00
2023-03-16T10:08:54.226Z,100.00
2023-03-16T10:10:02.028Z,100.00
2023-03-16T10:11:54.145Z,100.00
2023-03-16T10:13:00.791Z,100.00
2023-03-16T10:14:09.452Z,100.00
2023-03-16T10:15:19.419Z,100.00
2023-03-16T10:16:30.742Z,100.00
2023-03-16T10:17:41.570Z,100.00
2023-03-16T10:18:47.915Z,100.00
2023-03-16T10:19:54.350Z,100.00
2023-03-16T10:20:58.420Z,100.00
2023-03-16T10:22:09.719Z,100.00
2023-03-16T10:23:22.885Z,100.00
2023-03-16T10:24:48.551Z,100.00
2023-03-16T10:25:56.323Z,100.00
2023-03-16T10:27:02.211Z,100.00
2023-03-16T10:28:04.725Z,100.00
2023-03-16T10:29:12.859Z,100.00
2023-03-16T10:30:27.942Z,100.00
2023-03-16T10:31:30.509Z,100.00
2023-03-16T10:32:35.642Z,100.00
2023-03-16T10:33:39.530Z,100.00
2023-03-16T10:34:45.250Z,100.00
2023-03-16T10:35:52.132Z,100.00
2023-03-16T10:36:55.091Z,100.00
2023-03-16T10:37:58.611Z,100.00
2023-03-16T10:39:10.432Z,100.00
2023-03-16T10:40:12.948Z,100.00
2023-03-16T10:41:18.015Z,100.00
2023-03-16T10:42:21.331Z,100.00
2023-03-16T10:43:24.369Z,100.00
2023-03-16T10:44:29.838Z,100.00
2023-03-16T10:45:35.448Z,100.00
2023-03-16T10:46:48.476Z,100.00
2023-03-16T10:47:51.109Z,100.00
2023-03-16T10:48:59.740Z,100.00
2023-03-16T10:50:14.306Z,100.00
2023-03-16T10:51:20.881Z,100.00
2023-03-16T10:52:37.879Z,100.00
2023-03-16T10:53:44.128Z,100.00
2023-03-16T10:55:11.344Z,100.00
2023-03-16T10:56:25.152Z,100.00
2023-03-16T10:57:33.975Z,100.00
2023-03-16T10:58:42.049Z,100.00
2023-03-16T10:59:49.819Z,100.00
2023-03-16T11:00:53.466Z,100.00
2023-03-16T11:01:57.019Z,100.00
2023-03-16T11:02:59.829Z,100.00
2023-03-16T11:04:02.536Z,100.00
2023-03-16T11:05:31.339Z,100.00
2023-03-16T11:06:33.865Z,100.00
2023-03-16T11:07:36.464Z,100.00
2023-03-16T11:08:39.897Z,100.00
2023-03-16T11:09:45.376Z,100.00
2023-03-16T11:10:57.574Z,100.00
2023-03-16T11:12:12.060Z,100.00
2023-03-16T11:13:17.554Z,100.00
2023-03-16T11:14:23.366Z,100.00
2023-03-16T11:15:26.645Z,100.00
2023-03-16T11:16:43.836Z,100.00
2023-03-16T11:17:51.344Z,99.91
2023-03-16T11:19:27.326Z,96.97
2023-03-16T11:20:33.236Z,94.16
2023-03-16T11:21:55.214Z,94.75
2023-03-16T11:22:59.403Z,95.84
2023-03-16T11:24:04.478Z,99.66
2023-03-16T11:25:15.643Z,100.00
2023-03-16T11:26:33.553Z,98.76
2023-03-16T11:27:43.899Z,94.06
2023-03-16T11:28:51.817Z,96.81
2023-03-16T11:30:09.738Z,96.33
2023-03-16T11:31:19.993Z,94.86
2023-03-16T11:32:29.645Z,97.01
2023-03-16T11:33:32.031Z,86.99
2023-03-16T11:34:35.192Z,85.57
2023-03-16T11:35:57.971Z,87.75
2023-03-16T11:37:23.553Z,90.05
2023-03-16T11:38:40.188Z,90.17
2023-03-16T11:40:09.637Z,86.19
2023-03-16T11:41:20.245Z,86.00
2023-03-16T11:42:39.425Z,87.35
2023-03-16T11:44:16.331Z,91.68
2023-03-16T11:45:28.151Z,89.89
2023-03-16T11:46:49.235Z,94.25
2023-03-16T11:47:51.471Z,95.04
2023-03-16T11:49:12.105Z,94.13
2023-03-16T11:50:55.905Z,96.45
2023-03-16T11:52:26.483Z,94.59
2023-03-16T11:53:59.150Z,94.98
2023-03-16T11:55:07.810Z,91.97
2023-03-16T11:56:37.247Z,89.14
2023-03-16T11:58:17.132Z,89.38
2023-03-16T12:00:01.551Z,89.93
2023-03-16T12:01:24.662Z,91.99
2023-03-16T12:02:55.425Z,84.86
2023-03-16T12:04:13.017Z,86.01
2023-03-16T12:05:24.844Z,89.62
2023-03-16T12:06:41.818Z,87.94
2023-03-16T12:08:16.972Z,87.50
2023-03-16T12:09:54.403Z,85.45
2023-03-16T12:11:02.734Z,86.83
2023-03-16T12:12:29.483Z,89.56
2023-03-16T12:14:08.917Z,82.97
2023-03-16T12:15:21.384Z,84.69
2023-03-16T12:16:33.205Z,84.73
2023-03-16T12:17:44.002Z,84.22
2023-03-16T12:18:54.524Z,77.86
2023-03-16T12:20:05.615Z,79.92
2023-03-16T12:21:36.524Z,79.39
2023-03-16T12:22:44.347Z,83.39
2023-03-16T12:24:16.062Z,83.97
2023-03-16T12:25:25.541Z,83.10
2023-03-16T12:26:32.573Z,84.82
2023-03-16T12:27:38.801Z,82.62
2023-03-16T12:28:42.618Z,83.11
2023-03-16T12:29:57.181Z,84.47
2023-03-16T12:31:12.085Z,79.07
2023-03-16T12:32:35.536Z,80.04
2023-03-16T12:34:05.586Z,82.83
2023-03-16T12:35:22.328Z,83.08
2023-03-16T12:36:48.803Z,82.13
2023-03-16T12:38:19.138Z,85.97
2023-03-16T12:39:30.405Z,86.93
2023-03-16T12:40:46.418Z,88.00
2023-03-16T12:42:21.412Z,86.47
2023-03-16T12:43:42.680Z,83.74
2023-03-16T12:44:49.059Z,83.40
2023-03-16T12:46:09.751Z,85.20
2023-03-16T12:47:19.735Z,83.55
2023-03-16T12:48:32.299Z,81.66
2023-03-16T12:49:36.831Z,80.13
2023-03-16T12:50:54.555Z,78.69
2023-03-16T12:52:11.086Z,80.36
2023-03-16T12:53:30.435Z,80.36
2023-03-16T12:54:33.501Z,82.74
2023-03-16T12:55:35.753Z,79.62
2023-03-16T12:56:46.856Z,80.17
2023-03-16T12:57:51.605Z,80.55
2023-03-16T12:58:57.025Z,76.93
2023-03-16T13:00:01.179Z,78.15
2023-03-16T13:01:11.266Z,78.00
2023-03-16T13:02:26.259Z,76.99
2023-03-16T13:03:29.575Z,79.31
2023-03-16T13:04:35.396Z,78.41
2023-03-16T13:05:44.229Z,74.30
2023-03-16T13:06:50.472Z,73.19
2023-03-16T13:08:12.205Z,73.29
2023-03-16T13:09:20.221Z,74.93
2023-03-16T13:10:22.674Z,75.09
2023-03-16T13:11:25.441Z,76.95
2023-03-16T13:12:41.560Z,77.88
2023-03-16T13:14:02.722Z,75.84
2023-03-16T13:15:26.773Z,75.47
2023-03-16T13:16:33.118Z,76.47
2023-03-16T13:17:37.832Z,76.55
2023-03-16T13:18:45.249Z,76.81
2023-03-16T13:20:07.992Z,71.07
2023-03-16T13:21:23.003Z,71.39
2023-03-16T13:22:44.196Z,67.83
2023-03-16T13:23:54.542Z,66.03
2023-03-16T13:25:13.991Z,67.38
2023-03-16T13:26:22.822Z,67.75
2023-03-16T13:27:30.855Z,69.88
2023-03-16T13:28:37.666Z,70.60
2023-03-16T13:29:39.995Z,68.03
2023-03-16T13:30:49.261Z,67.72
2023-03-16T13:31:53.538Z,66.62
2023-03-16T13:33:01.129Z,67.14
2023-03-16T13:34:07.518Z,67.50
2023-03-16T13:35:15.410Z,69.62
2023-03-16T13:36:18.236Z,68.47
2023-03-16T13:37:21.782Z,67.84
2023-03-16T13:38:27.496Z,66.10
2023-03-16T13:39:32.105Z,66.54
2023-03-16T13:40:37.903Z,66.06
2023-03-16T13:41:42.875Z,68.12
2023-03-16T13:42:53.018Z,67.54
2023-03-16T13:43:55.869Z,67.96
2023-03-16T13:44:59.664Z,67.80
2023-03-16T13:46:02.262Z,68.83
2023-03-16T13:47:05.768Z,66.63
2023-03-16T13:48:12.375Z,66.09
2023-03-16T13:49:15.316Z,66.36
2023-03-16T13:50:18.840Z,69.04
2023-03-16T13:51:22.721Z,71.98
2023-03-16T13:52:35.636Z,72.48
2023-03-16T13:53:40.713Z,66.20
2023-03-16T13:54:43.096Z,67.00
2023-03-16T13:55:47.293Z,67.94
2023-03-16T13:56:52.190Z,67.87
2023-03-16T13:57:54.484Z,65.22
2023-03-16T13:58:58.527Z,64.51
2023-03-16T14:00:15.720Z,66.16
2023-03-16T14:01:27.413Z,70.41
2023-03-16T14:02:29.677Z,68.30
2023-03-16T14:03:35.932Z,67.74
2023-03-16T14:04:38.286Z,67.22
2023-03-16T14:05:40.904Z,66.89
2023-03-16T14:06:56.062Z,67.54
2023-03-16T14:08:00.848Z,67.66
2023-03-16T14:09:06.341Z,67.27
2023-03-16T14:10:15.418Z,69.08
2023-03-16T14:11:17.701Z,67.27
2023-03-16T14:12:20.178Z,63.42
2023-03-16T14:13:28.146Z,65.93
2023-03-16T14:14:36.929Z,68.55